Time;durP1;ratioP1;P1;durP2;ratioP2;P2;SDS_P1;SDS_P2;PMS_P1;PMS_P2;Temp;Humidity;BMP_temperature;BMP_pressure;BME280_temperature;BME280_humidity;BME280_pressure;Samples;Min_cycle;Max_cycle;Signal;HPM_P1;HPM_P2
2022/11/25 00:01:08;;;;;;;25.05;4.90;;;;;;;9.17;100.00;98585.06;5025579;28;20064;-81
2022/11/25 00:03:35;;;;;;;17.33;4.20;;;;;;;9.03;100.00;98566.84;5021258;28;20050;-80
2022/11/25 00:06:11;;;;;;;21.45;4.10;;;;;;;9.11;100.00;98585.47;5023198;28;20452;-80
2022/11/25 00:08:39;;;;;;;17.25;3.35;;;;;;;9.22;100.00;98585.56;5021826;28;20100;-80
2022/11/25 00:11:06;;;;;;;26.98;5.32;;;;;;;9.30;100.00;98572.84;5021020;28;20118;-80
2022/11/25 00:13:33;;;;;;;20.77;4.78;;;;;;;9.08;100.00;98572.59;5019357;28;20058;-80
2022/11/25 00:16:06;;;;;;;15.65;3.65;;;;;;;9.38;100.00;98582.78;5019906;28;20053;-80
2022/11/25 00:18:34;;;;;;;22.98;5.85;;;;;;;9.13;100.00;98573.97;5023250;28;20123;-80
2022/11/25 00:21:12;;;;;;;16.88;3.28;;;;;;;9.18;100.00;98601.56;5018396;28;20096;-81
2022/11/25 00:23:39;;;;;;;14.43;3.35;;;;;;;9.40;100.00;98608.78;5024733;28;20484;-80
2022/11/25 00:26:12;;;;;;;15.50;3.55;;;;;;;9.17;100.00;98600.75;5022568;28;20045;-80
2022/11/25 00:28:40;;;;;;;14.93;3.22;;;;;;;9.05;100.00;98602.38;5042133;28;20119;-81
2022/11/25 00:31:15;;;;;;;17.08;3.13;;;;;;;9.23;100.00;98636.03;5029766;28;20049;-80
2022/11/25 00:33:43;;;;;;;12.32;3.50;;;;;;;9.19;100.00;98635.41;5029421;28;20038;-80
2022/11/25 00:36:40;;;;;;;14.23;2.95;;;;;;;9.34;100.00;98615.28;5036001;28;20048;-81
2022/11/25 00:39:13;;;;;;;15.45;3.00;;;;;;;9.20;100.00;98628.41;5040496;28;20103;-81
2022/11/25 00:44:35;;;;;;;15.50;2.75;;;;;;;9.26;100.00;98614.94;5033712;28;20416;-81
2022/11/25 00:47:12;;;;;;;21.95;3.10;;;;;;;9.45;100.00;98664.19;5031723;28;20503;-80
2022/11/25 00:49:42;;;;;;;14.23;2.40;;;;;;;9.10;100.00;98643.81;5030944;28;20046;-81
2022/11/25 00:52:12;;;;;;;12.80;2.20;;;;;;;9.02;100.00;98646.94;5032562;28;20053;-80
2022/11/25 00:54:39;;;;;;;16.88;3.53;;;;;;;8.99;100.00;98652.34;5028381;28;20077;-79
2022/11/25 00:57:05;;;;;;;10.45;2.22;;;;;;;9.06;100.00;98653.63;5028932;28;20049;-81
2022/11/25 00:59:32;;;;;;;12.13;2.15;;;;;;;9.06;100.00;98671.06;5035244;28;20064;-80
2022/11/25 01:01:59;;;;;;;11.40;3.90;;;;;;;9.21;100.00;98671.88;5033553;28;20758;-81
2022/11/25 01:04:26;;;;;;;11.50;3.05;;;;;;;9.06;100.00;98690.16;5035709;28;20049;-81
2022/11/25 01:06:55;;;;;;;12.80;2.47;;;;;;;9.27;100.00;98677.50;5041884;28;20057;-81
2022/11/25 01:09:22;;;;;;;21.10;2.85;;;;;;;9.36;100.00;98689.13;5034167;28;20049;-81
2022/11/25 01:11:50;;;;;;;9.38;2.90;;;;;;;9.45;100.00;98692.91;5034280;28;20115;-81
2022/11/25 01:14:18;;;;;;;14.05;2.00;;;;;;;9.46;100.00;98689.38;5034405;28;20128;-81
2022/11/25 01:16:46;;;;;;;14.88;2.30;;;;;;;9.55;100.00;98688.75;5031563;28;20037;-81
2022/11/25 01:19:13;;;;;;;15.32;3.67;;;;;;;9.49;100.00;98665.66;5041509;28;20479;-81
2022/11/25 01:21:40;;;;;;;13.25;3.38;;;;;;;9.35;100.00;98660.50;5034052;28;20058;-81
2022/11/25 01:24:07;;;;;;;13.43;2.92;;;;;;;9.48;100.00;98653.53;5023660;28;20108;-81
2022/11/25 01:26:35;;;;;;;16.38;2.90;;;;;;;9.56;100.00;98661.72;5027792;28;20188;-81
2022/11/25 01:29:07;;;;;;;14.75;2.67;;;;;;;9.19;100.00;98638.03;5031955;28;20057;-81
2022/11/25 01:31:35;;;;;;;10.05;2.30;;;;;;;9.27;100.00;98659.22;5033454;28;20095;-81
2022/11/25 01:34:05;;;;;;;13.57;3.70;;;;;;;9.24;100.00;98664.66;5033449;28;20056;-80
2022/11/25 01:36:32;;;;;;;15.80;3.30;;;;;;;9.36;100.00;98660.41;5035836;28;20041;-82
2022/11/25 01:38:59;;;;;;;17.90;2.90;;;;;;;9.44;100.00;98655.53;5044184;28;20049;-80
2022/11/25 01:41:29;;;;;;;22.73;4.43;;;;;;;9.37;100.00;98664.69;5033080;28;20049;-81
2022/11/25 01:44:18;;;;;;;13.13;2.67;;;;;;;9.41;100.00;98670.56;5032127;28;20384;-81
2022/11/25 01:47:06;;;;;;;17.50;3.55;;;;;;;9.49;100.00;98671.72;5033727;28;20061;-81
2022/11/25 01:49:39;;;;;;;15.00;2.88;;;;;;;9.45;100.00;98685.91;5022021;28;20053;-81
2022/11/25 01:52:30;;;;;;;15.27;3.22;;;;;;;9.42;100.00;98678.28;5028143;28;20466;-81
2022/11/25 01:55:28;;;;;;;17.63;3.08;;;;;;;9.62;100.00;98690.03;5031944;28;20072;-81
2022/11/25 01:57:58;;;;;;;15.18;3.20;;;;;;;9.42;100.00;98686.13;5031307;28;20053;-81
2022/11/25 02:00:25;;;;;;;13.82;3.70;;;;;;;9.48;100.00;98683.09;5027353;28;20466;-81
2022/11/25 02:02:54;;;;;;;14.75;2.70;;;;;;;9.57;100.00;98699.13;5034224;28;20053;-81
2022/11/25 02:05:34;;;;;;;13.60;3.28;;;;;;;9.62;100.00;98713.53;5026682;28;20054;-81
2022/11/25 02:08:03;;;;;;;11.07;2.92;;;;;;;9.59;100.00;98708.50;5018160;28;20489;-81
2022/11/25 02:10:31;;;;;;;13.95;2.50;;;;;;;9.61;100.00;98703.19;5028175;28;20191;-81
2022/11/25 02:12:59;;;;;;;13.80;2.15;;;;;;;9.52;100.00;98720.31;5017824;28;20058;-80
2022/11/25 02:15:27;;;;;;;14.23;2.97;;;;;;;9.38;100.00;98721.19;5015049;28;20046;-81
2022/11/25 02:17:54;;;;;;;8.70;1.90;;;;;;;9.54;100.00;98731.50;5031300;28;20061;-80
2022/11/25 02:20:23;;;;;;;9.32;2.22;;;;;;;9.46;100.00;98741.63;5033261;28;20213;-81
2022/11/25 02:23:10;;;;;;;16.63;2.47;;;;;;;9.43;100.00;98750.47;5034051;28;20049;-81
2022/11/25 02:25:39;;;;;;;11.52;1.83;;;;;;;9.55;100.00;98772.38;5019897;28;20053;-81
2022/11/25 02:28:15;;;;;;;9.45;1.73;;;;;;;9.67;100.00;98766.34;5024511;28;20091;-81
2022/11/25 02:30:42;;;;;;;10.15;2.00;;;;;;;9.26;100.00;98751.56;5022504;28;20054;-81
2022/11/25 02:33:09;;;;;;;15.18;2.20;;;;;;;9.53;100.00;98763.78;5021291;28;20057;-81
2022/11/25 02:35:42;;;;;;;16.08;2.83;;;;;;;9.44;100.00;98775.69;5028163;28;20037;-81
2022/11/25 02:38:21;;;;;;;9.95;2.03;;;;;;;9.53;100.00;98781.25;5016157;28;20050;-81
2022/11/25 02:40:59;;;;;;;11.35;2.42;;;;;;;9.27;100.00;98784.56;5017323;28;20053;-81
2022/11/25 02:43:26;;;;;;;10.07;2.05;;;;;;;9.26;100.00;98788.13;5027314;28;20061;-80
2022/11/25 02:46:04;;;;;;;8.35;1.90;;;;;;;9.29;100.00;98763.59;5021877;28;20624;-81
2022/11/25 02:48:35;;;;;;;11.57;2.53;;;;;;;9.17;100.00;98803.53;5032090;28;20049;-81
2022/11/25 02:51:26;;;;;;;8.02;1.98;;;;;;;9.06;100.00;98820.69;5030285;28;20084;-81
2022/11/25 02:53:53;;;;;;;9.88;2.10;;;;;;;9.22;100.00;98830.19;5019331;28;20450;-81
2022/11/25 02:56:22;;;;;;;10.63;2.10;;;;;;;8.93;100.00;98799.75;5030262;28;20041;-81
2022/11/25 02:58:49;;;;;;;11.68;2.15;;;;;;;9.35;100.00;98845.94;5031518;28;20057;-80
2022/11/25 03:01:16;;;;;;;7.60;2.20;;;;;;;9.10;100.00;98863.97;5035028;28;20445;-81
2022/11/25 03:03:42;;;;;;;11.88;2.40;;;;;;;9.13;100.00;98865.53;5041829;28;20452;-81
2022/11/25 03:06:09;;;;;;;12.02;2.33;;;;;;;9.32;100.00;98867.88;5032939;28;20121;-80
2022/11/25 03:08:37;;;;;;;6.65;2.10;;;;;;;9.39;100.00;98877.00;5029509;28;21309;-81
2022/11/25 03:11:04;;;;;;;10.10;1.90;;;;;;;9.23;100.00;98889.34;5030936;28;20057;-81
2022/11/25 03:13:31;;;;;;;9.82;2.00;;;;;;;9.23;100.00;98899.78;5030930;28;20438;-81
2022/11/25 03:15:57;;;;;;;10.70;2.40;;;;;;;9.29;100.00;98900.22;5031913;28;20053;-81
2022/11/25 03:18:24;;;;;;;10.88;2.40;;;;;;;9.17;100.00;98911.44;5023181;28;20054;-81
2022/11/25 03:20:52;;;;;;;11.45;2.30;;;;;;;9.06;100.00;98899.00;5031951;28;20095;-81
2022/11/25 03:23:19;;;;;;;12.82;2.22;;;;;;;9.30;100.00;98899.31;5030745;28;20446;-81
2022/11/25 03:25:46;;;;;;;11.13;1.90;;;;;;;9.29;100.00;98899.38;5030540;28;20064;-81
2022/11/25 03:28:13;;;;;;;9.48;2.22;;;;;;;9.12;100.00;98909.09;5025850;28;20139;-81
2022/11/25 03:30:40;;;;;;;12.38;2.50;;;;;;;9.15;100.00;98915.06;5031293;28;20061;-80
2022/11/25 03:33:07;;;;;;;11.10;2.20;;;;;;;9.24;100.00;98912.75;5031409;28;20102;-81
2022/11/25 03:35:33;;;;;;;11.57;2.10;;;;;;;9.21;100.00;98906.88;5037560;28;20050;-81
2022/11/25 03:38:00;;;;;;;13.77;2.75;;;;;;;9.15;100.00;98931.56;5023418;28;20053;-80
2022/11/25 03:40:27;;;;;;;11.65;2.55;;;;;;;9.21;100.00;98933.00;5037330;28;20572;-80
2022/11/25 03:42:53;;;;;;;10.90;2.47;;;;;;;9.05;100.00;98936.50;5028352;28;20104;-81
2022/11/25 03:45:20;;;;;;;13.23;3.13;;;;;;;9.13;100.00;98934.25;5033446;28;20509;-81
2022/11/25 03:47:47;;;;;;;12.93;3.15;;;;;;;9.04;100.00;98936.59;5014808;28;20103;-81
2022/11/25 03:50:15;;;;;;;11.10;2.50;;;;;;;8.87;100.00;98927.16;5035471;28;20045;-81
2022/11/25 03:52:41;;;;;;;11.35;2.70;;;;;;;8.99;100.00;98946.47;5029795;28;20107;-81
2022/11/25 03:55:09;;;;;;;10.45;2.50;;;;;;;9.12;100.00;98969.16;5020578;28;20396;-80
2022/11/25 03:57:35;;;;;;;7.72;2.00;;;;;;;9.03;100.00;98972.31;5018720;28;20054;-80
2022/11/25 04:00:03;;;;;;;12.52;2.47;;;;;;;9.00;100.00;98966.44;5015422;28;20104;-81
2022/11/25 04:02:30;;;;;;;8.30;2.67;;;;;;;8.84;100.00;98967.34;5025591;28;20108;-81
2022/11/25 04:04:56;;;;;;;15.63;2.65;;;;;;;8.89;100.00;98974.91;5037160;28;20045;-81
2022/11/25 04:07:23;;;;;;;14.13;2.50;;;;;;;8.69;100.00;98956.03;5025183;28;20046;-81
2022/11/25 04:09:50;;;;;;;8.85;2.20;;;;;;;8.81;100.00;98959.69;5018342;28;20499;-81
2022/11/25 04:15:03;;;;;;;12.65;3.08;;;;;;;8.92;100.00;99011.25;5016107;28;20050;-80
2022/11/25 04:17:29;;;;;;;13.80;2.15;;;;;;;8.86;100.00;98996.78;5029365;28;20434;-80
2022/11/25 04:19:56;;;;;;;11.40;2.55;;;;;;;8.96;100.00;99011.91;5037334;28;20099;-81
2022/11/25 04:22:22;;;;;;;10.73;3.03;;;;;;;8.90;100.00;99023.56;5030030;28;20049;-81
2022/11/25 04:24:49;;;;;;;10.80;2.33;;;;;;;8.87;100.00;99021.97;5026935;28;20058;-81
2022/11/25 04:27:16;;;;;;;8.13;2.03;;;;;;;8.84;100.00;99023.91;5023582;28;20049;-81
2022/11/25 04:29:45;;;;;;;12.13;2.70;;;;;;;8.79;100.00;99018.13;5030483;28;20088;-80
2022/11/25 04:32:12;;;;;;;9.98;2.38;;;;;;;8.76;100.00;99026.94;5029496;28;20538;-81
2022/11/25 04:34:39;;;;;;;8.88;2.60;;;;;;;8.63;100.00;99034.66;5029305;28;20096;-81
2022/11/25 04:37:06;;;;;;;9.65;2.50;;;;;;;8.70;100.00;99048.19;5030612;28;20091;-81
2022/11/25 04:39:33;;;;;;;10.18;2.28;;;;;;;8.51;100.00;99059.66;5030976;28;20049;-81
2022/11/25 04:44:45;;;;;;;11.00;2.88;;;;;;;8.35;100.00;99025.72;5030660;28;20053;-81
2022/11/25 04:47:31;;;;;;;11.18;2.42;;;;;;;8.19;100.00;99014.47;5036373;28;20124;-81
2022/11/25 04:49:58;;;;;;;15.52;2.78;;;;;;;8.32;100.00;99054.59;5031333;28;20115;-81
2022/11/25 04:52:25;;;;;;;9.27;2.42;;;;;;;8.42;100.00;99074.94;5030821;28;20529;-81
2022/11/25 04:54:52;;;;;;;10.00;2.53;;;;;;;8.32;100.00;99069.38;5039191;28;20462;-81
2022/11/25 04:57:19;;;;;;;9.02;2.53;;;;;;;8.44;100.00;99073.13;5029156;28;20046;-81
2022/11/25 04:59:47;;;;;;;11.85;2.63;;;;;;;8.22;100.00;99070.84;5030535;28;20422;-81
2022/11/25 05:02:25;;;;;;;14.10;2.38;;;;;;;8.10;100.00;99094.03;5030201;28;20107;-80
2022/11/25 05:04:54;;;;;;;8.70;2.42;;;;;;;8.30;100.00;99111.19;5027055;28;20749;-81
2022/11/25 05:07:24;;;;;;;8.77;2.58;;;;;;;8.25;100.00;99108.00;5020140;28;20096;-81
2022/11/25 05:09:51;;;;;;;10.55;2.55;;;;;;;8.21;100.00;99105.63;5025913;28;20052;-81
2022/11/25 05:12:21;;;;;;;9.98;2.63;;;;;;;8.18;100.00;99117.91;5030023;28;20773;-81
2022/11/25 05:14:48;;;;;;;12.50;3.08;;;;;;;8.09;100.00;99115.81;5027594;28;20057;-80
2022/11/25 05:17:17;;;;;;;10.60;3.00;;;;;;;7.89;100.00;99103.81;5029403;28;20050;-81
2022/11/25 05:19:45;;;;;;;12.20;2.83;;;;;;;7.95;100.00;99121.75;5031102;28;20475;-81
2022/11/25 05:22:13;;;;;;;11.43;3.00;;;;;;;8.00;100.00;99137.13;5024198;28;20505;-81
2022/11/25 05:24:40;;;;;;;10.35;2.50;;;;;;;8.19;100.00;99142.22;5031347;28;20053;-81
2022/11/25 05:27:07;;;;;;;12.52;2.63;;;;;;;8.14;100.00;99145.09;5031429;28;20041;-81
2022/11/25 05:29:35;;;;;;;12.40;2.75;;;;;;;7.90;100.00;99141.16;5033467;28;20050;-81
2022/11/25 05:32:02;;;;;;;9.55;2.03;;;;;;;8.27;100.00;99179.16;5033011;28;20057;-81
2022/11/25 05:34:29;;;;;;;12.25;2.47;;;;;;;8.19;100.00;99165.69;5039522;28;20425;-80
2022/11/25 05:36:56;;;;;;;13.98;3.08;;;;;;;8.05;100.00;99142.94;5042011;28;20111;-82
2022/11/25 05:39:23;;;;;;;7.60;2.35;;;;;;;8.37;100.00;99174.28;5034667;28;20471;-81
2022/11/25 05:41:50;;;;;;;7.82;1.90;;;;;;;8.29;100.00;99174.72;5039251;28;20057;-82
2022/11/25 05:44:17;;;;;;;9.73;2.00;;;;;;;8.06;100.00;99144.63;5033136;28;20099;-81
2022/11/25 05:46:49;;;;;;;15.43;2.30;;;;;;;8.25;100.00;99167.97;5023011;28;20063;-81
2022/11/25 05:49:17;;;;;;;6.78;1.60;;;;;;;8.33;100.00;99185.81;5039826;28;20056;-81
2022/11/25 05:51:44;;;;;;;17.98;2.50;;;;;;;8.26;100.00;99169.66;5032257;28;20096;-81
2022/11/25 05:54:10;;;;;;;9.07;2.40;;;;;;;8.34;100.00;99197.94;5031996;28;20162;-81
2022/11/25 05:56:37;;;;;;;5.40;1.65;;;;;;;8.29;100.00;99203.41;5031762;28;20705;-81
2022/11/25 05:59:05;;;;;;;12.13;2.28;;;;;;;8.17;100.00;99210.09;5033971;28;20057;-80
2022/11/25 06:01:32;;;;;;;7.65;1.95;;;;;;;8.21;100.00;99204.72;5032656;28;20107;-81
2022/11/25 06:04:03;;;;;;;10.25;2.92;;;;;;;8.23;100.00;99223.72;5039704;28;20529;-81
2022/11/25 06:06:31;;;;;;;10.73;2.20;;;;;;;7.92;100.00;99212.28;5037550;28;20049;-80
2022/11/25 06:08:58;;;;;;;10.52;2.67;;;;;;;7.89;100.00;99218.47;5027506;28;20058;-81
2022/11/25 06:11:25;;;;;;;12.73;2.63;;;;;;;7.98;100.00;99219.78;5035675;28;20046;-81
2022/11/25 06:13:51;;;;;;;12.20;2.67;;;;;;;7.98;100.00;99227.59;5030296;28;20057;-81
2022/11/25 06:16:21;;;;;;;14.55;2.75;;;;;;;7.91;100.00;99234.88;5020291;28;20041;-80
2022/11/25 06:18:48;;;;;;;8.75;2.38;;;;;;;7.74;100.00;99212.28;5031397;28;20049;-81
2022/11/25 06:21:16;;;;;;;13.98;3.38;;;;;;;7.95;100.00;99239.03;5021789;28;20049;-81
2022/11/25 06:23:46;;;;;;;8.27;2.40;;;;;;;7.95;100.00;99245.97;5019767;28;20501;-81
2022/11/25 06:26:21;;;;;;;8.07;2.45;;;;;;;8.04;100.00;99245.53;5026218;28;20041;-81
2022/11/25 06:28:52;;;;;;;8.93;2.85;;;;;;;7.96;100.00;99251.13;5030753;28;20404;-81
2022/11/25 06:31:21;;;;;;;13.52;4.28;;;;;;;7.85;100.00;99248.22;5029100;28;20087;-81
2022/11/25 06:33:49;;;;;;;7.60;2.15;;;;;;;7.76;100.00;99251.28;5017302;28;20096;-81
2022/11/25 06:36:17;;;;;;;14.00;3.15;;;;;;;7.87;100.00;99254.19;5021426;28;20384;-81
2022/11/25 06:38:46;;;;;;;11.90;2.33;;;;;;;7.84;100.00;99251.75;5026179;28;20460;-81
2022/11/25 06:41:13;;;;;;;11.82;2.13;;;;;;;7.76;100.00;99272.13;5033071;28;20056;-82
2022/11/25 06:43:40;;;;;;;13.57;2.53;;;;;;;7.78;100.00;99284.16;5037941;28;20103;-81
2022/11/25 06:46:09;;;;;;;10.95;3.63;;;;;;;7.76;100.00;99283.41;5024180;28;20099;-81
2022/11/25 06:48:36;;;;;;;9.13;2.05;;;;;;;7.84;100.00;99290.81;5019179;28;20596;-81
2022/11/25 06:51:06;;;;;;;8.77;2.42;;;;;;;7.82;100.00;99287.47;5027774;28;20566;-81
2022/11/25 06:53:33;;;;;;;9.45;2.35;;;;;;;7.84;100.00;99296.03;5019905;28;20052;-81
2022/11/25 06:56:11;;;;;;;10.55;2.38;;;;;;;7.60;100.00;99304.16;5030001;28;20053;-81
2022/11/25 06:58:39;;;;;;;9.23;2.22;;;;;;;7.54;100.00;99304.44;5018347;28;20439;-81
2022/11/25 07:01:13;;;;;;;8.88;2.50;;;;;;;7.61;100.00;99310.19;5031179;28;20049;-81
2022/11/25 07:03:42;;;;;;;11.15;2.10;;;;;;;7.68;100.00;99310.75;5019743;28;20052;-81
2022/11/25 07:06:12;;;;;;;8.43;2.15;;;;;;;7.81;100.00;99314.44;5031356;28;20132;-81
2022/11/25 07:08:39;;;;;;;6.00;1.50;;;;;;;7.71;100.00;99318.41;5023872;28;20049;-81
2022/11/25 07:11:34;;;;;;;5.55;1.95;;;;;;;7.72;100.00;99325.28;5022941;28;20057;-81
2022/11/25 07:14:05;;;;;;;8.98;2.55;;;;;;;7.52;100.00;99329.69;5016709;28;20057;-81
2022/11/25 07:16:32;;;;;;;12.63;2.13;;;;;;;7.46;100.00;99339.59;5020326;28;20042;-81
2022/11/25 07:19:01;;;;;;;12.55;2.35;;;;;;;7.34;100.00;99352.25;5024872;28;20065;-80
2022/11/25 07:21:29;;;;;;;9.05;1.92;;;;;;;7.43;100.00;99348.38;5021714;28;20045;-81
2022/11/25 07:23:58;;;;;;;9.15;2.20;;;;;;;7.31;100.00;99352.41;5026861;28;20065;-82
2022/11/25 07:26:29;;;;;;;6.85;1.83;;;;;;;7.53;100.00;99391.31;5017667;28;20045;-81
2022/11/25 07:29:01;;;;;;;12.82;4.53;;;;;;;7.29;100.00;99384.63;5022394;28;20053;-82
2022/11/25 07:31:30;;;;;;;9.07;2.38;;;;;;;7.48;100.00;99406.31;5026505;28;20042;-82
2022/11/25 07:34:09;;;;;;;6.85;1.90;;;;;;;7.62;100.00;99404.84;5037562;28;20917;-82
2022/11/25 07:36:36;;;;;;;11.70;2.22;;;;;;;7.20;100.00;99367.66;5023669;28;20528;-81
2022/11/25 07:39:06;;;;;;;7.75;1.90;;;;;;;7.47;100.00;99383.78;5027241;28;20438;-81
2022/11/25 07:41:34;;;;;;;6.88;2.13;;;;;;;7.52;100.00;99410.44;5021847;28;20050;-81
2022/11/25 07:44:03;;;;;;;9.32;2.22;;;;;;;7.50;100.00;99412.28;5027744;28;20053;-81
2022/11/25 07:46:33;;;;;;;7.97;2.00;;;;;;;7.35;100.00;99413.84;5024587;28;20439;-81
2022/11/25 07:49:03;;;;;;;10.93;2.50;;;;;;;7.15;100.00;99406.94;5023678;28;20502;-81
2022/11/25 07:51:40;;;;;;;9.40;2.13;;;;;;;7.37;100.00;99424.19;5016454;28;20103;-81
2022/11/25 07:54:10;;;;;;;14.45;2.38;;;;;;;7.32;100.00;99426.16;5022404;28;20053;-81
2022/11/25 07:56:39;;;;;;;6.70;1.90;;;;;;;7.42;100.00;99440.44;5036060;28;20443;-82
2022/11/25 07:59:09;;;;;;;8.25;2.00;;;;;;;7.26;100.00;99427.28;5029832;28;20049;-80
2022/11/25 08:01:36;;;;;;;6.88;2.13;;;;;;;7.01;100.00;99396.25;5025421;28;20096;-81
2022/11/25 08:04:03;;;;;;;9.48;3.05;;;;;;;7.08;100.00;99418.50;5026095;28;20049;-80
2022/11/25 08:06:30;;;;;;;8.98;2.30;;;;;;;7.10;100.00;99441.88;5021386;28;20097;-82
2022/11/25 08:08:57;;;;;;;10.52;2.65;;;;;;;7.13;100.00;99449.53;5023509;28;20061;-82
2022/11/25 08:11:27;;;;;;;9.32;2.28;;;;;;;7.11;100.00;99431.38;5025307;28;20056;-82
2022/11/25 08:13:54;;;;;;;11.35;2.17;;;;;;;7.01;100.00;99420.56;5020971;28;20451;-81
2022/11/25 08:16:25;;;;;;;8.27;1.90;;;;;;;7.17;100.00;99446.75;5019520;28;20046;-82
2022/11/25 08:18:53;;;;;;;7.00;1.90;;;;;;;7.19;100.00;99426.69;5024179;28;20702;-82
2022/11/25 08:21:20;;;;;;;8.98;2.10;;;;;;;7.33;100.00;99461.66;5027185;28;20056;-81
2022/11/25 08:23:47;;;;;;;7.05;2.10;;;;;;;7.32;100.00;99460.00;5024001;28;20045;-81
2022/11/25 08:26:20;;;;;;;6.10;1.67;;;;;;;7.22;100.00;99439.59;5023987;28;20049;-80
2022/11/25 08:28:47;;;;;;;12.13;2.05;;;;;;;7.30;100.00;99436.63;5021290;28;20046;-81
2022/11/25 08:31:26;;;;;;;12.95;1.85;;;;;;;7.52;100.00;99472.13;5029094;28;20052;-82
2022/11/25 08:33:54;;;;;;;5.93;1.80;;;;;;;7.45;100.00;99483.72;5024754;28;20533;-81
2022/11/25 08:36:21;;;;;;;7.80;1.77;;;;;;;7.47;100.00;99501.00;5020677;28;20052;-81
2022/11/25 08:38:51;;;;;;;5.70;1.80;;;;;;;7.49;100.00;99493.09;5015865;28;20096;-81
2022/11/25 08:41:24;;;;;;;6.65;2.00;;;;;;;7.78;100.00;99502.19;5034916;28;20050;-82
2022/11/25 08:43:51;;;;;;;7.03;1.73;;;;;;;7.56;100.00;99456.28;5022753;28;20049;-82
2022/11/25 08:46:24;;;;;;;5.15;1.60;;;;;;;7.74;100.00;99467.63;5030671;28;21285;-82
2022/11/25 08:48:50;;;;;;;8.13;1.88;;;;;;;8.16;100.00;99512.59;5030124;28;20465;-82
2022/11/25 08:51:21;;;;;;;7.05;2.20;;;;;;;7.94;100.00;99523.19;5024949;28;20459;-82
2022/11/25 08:53:50;;;;;;;6.30;1.67;;;;;;;7.66;100.00;99494.94;5023966;28;20049;-82
2022/11/25 08:56:18;;;;;;;6.93;1.80;;;;;;;7.74;100.00;99513.69;5032823;28;20103;-83
2022/11/25 08:58:51;;;;;;;3.70;1.30;;;;;;;7.43;100.00;99493.38;5020634;28;20148;-82
2022/11/25 09:01:19;;;;;;;6.97;1.70;;;;;;;7.48;100.00;99525.28;5034275;28;20060;-82
2022/11/25 09:03:49;;;;;;;5.97;1.70;;;;;;;7.51;100.00;99523.38;5033558;28;20053;-82
2022/11/25 09:06:16;;;;;;;8.35;1.83;;;;;;;7.26;100.00;99509.72;5033544;28;20045;-82
2022/11/25 09:08:44;;;;;;;9.57;3.15;;;;;;;7.62;100.00;99541.13;5026490;28;20912;-80
2022/11/25 09:11:11;;;;;;;6.60;1.63;;;;;;;7.70;100.00;99553.81;5029983;28;20057;-82
2022/11/25 09:13:38;;;;;;;4.97;1.45;;;;;;;7.69;100.00;99536.50;5030474;28;20104;-82
2022/11/25 09:16:06;;;;;;;3.47;1.20;;;;;;;7.78;100.00;99520.44;5031453;28;20454;-82
2022/11/25 09:18:34;;;;;;;5.35;1.80;;;;;;;7.68;100.00;99540.00;5034407;28;20044;-83
2022/11/25 09:21:07;;;;;;;9.52;2.67;;;;;;;7.66;100.00;99550.50;5029705;28;20445;-81
2022/11/25 09:23:34;;;;;;;5.15;1.40;;;;;;;7.44;100.00;99519.34;5030977;28;20356;-81
2022/11/25 09:26:01;;;;;;;7.53;1.50;;;;;;;7.87;100.00;99561.72;5026250;28;20057;-82
2022/11/25 09:28:27;;;;;;;9.02;2.10;;;;;;;7.41;100.00;99504.69;5025380;28;20049;-81
2022/11/25 09:30:54;;;;;;;7.38;1.60;;;;;;;7.80;100.00;99542.06;5021381;28;20057;-81
2022/11/25 09:33:21;;;;;;;7.13;2.13;;;;;;;7.79;100.00;99562.06;5034375;28;20073;-81
2022/11/25 09:35:49;;;;;;;10.43;2.00;;;;;;;7.66;100.00;99539.22;5032336;28;20119;-81
2022/11/25 09:38:16;;;;;;;7.65;1.85;;;;;;;7.82;100.00;99545.44;5034133;28;20529;-81
2022/11/25 09:40:57;;;;;;;9.40;2.00;;;;;;;7.91;100.00;99571.06;5032398;28;20453;-82
2022/11/25 09:46:50;;;;;;;11.85;2.30;;;;;;;7.68;100.00;99538.22;5012298;28;20061;-81
2022/11/25 09:49:26;;;;;;;11.43;2.10;;;;;;;8.03;100.00;99584.50;5033422;28;20053;-81
2022/11/25 09:51:53;;;;;;;6.22;2.03;;;;;;;8.01;100.00;99610.63;5033586;28;20049;-81
2022/11/25 09:54:28;;;;;;;7.35;2.40;;;;;;;8.20;100.00;99591.53;5031456;28;20053;-81
2022/11/25 09:57:03;;;;;;;13.48;3.35;;;;;;;8.04;100.00;99574.00;5020009;28;20120;-81
2022/11/25 09:59:59;;;;;;;15.75;2.50;;;;;;;8.26;100.00;99592.09;5026206;28;20053;-82
2022/11/25 10:02:36;;;;;;;7.15;1.98;;;;;;;8.50;100.00;99591.91;4996188;28;20431;-81
2022/11/25 10:05:20;;;;;;;10.65;2.60;;;;;;;8.49;100.00;99591.03;5031469;28;20089;-81
2022/11/25 10:07:52;;;;;;;13.48;2.55;;;;;;;8.16;100.00;99539.53;5026418;28;20079;-81
2022/11/25 10:10:26;;;;;;;8.35;2.83;;;;;;;8.70;100.00;99602.22;5027668;28;20046;-81
2022/11/25 10:12:55;;;;;;;11.50;2.40;;;;;;;8.50;100.00;99558.00;5033168;28;20045;-82
2022/11/25 10:15:27;;;;;;;13.35;3.88;;;;;;;8.70;100.00;99594.41;5030407;28;20053;-82
2022/11/25 10:17:59;;;;;;;10.05;2.58;;;;;;;8.55;100.00;99554.25;5029818;28;20053;-81
2022/11/25 10:20:45;;;;;;;16.05;3.28;;;;;;;8.69;100.00;99584.91;5031317;28;20103;-81
2022/11/25 10:23:21;;;;;;;8.60;2.30;;;;;;;8.96;100.00;99597.53;5020662;28;20045;-81
2022/11/25 10:26:13;;;;;;;12.07;2.50;;;;;;;8.88;100.00;99557.88;5032227;28;20124;-81
2022/11/25 10:28:47;;;;;;;11.02;2.65;;;;;;;9.24;100.00;99597.00;5032851;28;20057;-81
2022/11/25 10:31:19;;;;;;;11.25;2.30;;;;;;;8.89;100.00;99572.63;5023742;28;20454;-82
2022/11/25 10:33:52;;;;;;;10.35;2.63;;;;;;;9.12;100.00;99606.28;5030405;28;20059;-82
2022/11/25 10:36:32;;;;;;;9.77;3.00;;;;;;;9.35;100.00;99601.69;5014463;28;20057;-80
2022/11/25 10:39:10;;;;;;;14.27;3.05;;;;;;;9.19;100.00;99596.38;5025187;28;20099;-81
2022/11/25 10:41:51;;;;;;;8.27;2.15;;;;;;;9.18;100.00;99609.50;5045314;28;20057;-81
2022/11/25 10:44:27;;;;;;;12.25;2.80;;;;;;;9.00;100.00;99632.16;5029893;28;20487;-80
2022/11/25 10:47:08;;;;;;;11.90;2.55;;;;;;;9.22;100.00;99631.94;5035810;28;20699;-81
2022/11/25 10:50:21;;;;;;;12.48;3.15;;;;;;;9.08;100.00;99636.09;5026245;28;20089;-81
2022/11/25 10:53:10;;;;;;;14.27;4.05;;;;;;;9.10;100.00;99602.91;5032694;28;20103;-82
2022/11/25 10:55:37;;;;;;;14.63;3.58;;;;;;;9.04;100.00;99603.19;5013053;28;20054;-81
2022/11/25 10:58:41;;;;;;;13.13;3.42;;;;;;;9.19;100.00;99614.66;5030014;28;20045;-81
2022/11/25 11:01:20;;;;;;;17.70;3.65;;;;;;;9.12;100.00;99605.44;4989932;28;20794;-81
2022/11/25 11:03:53;;;;;;;13.60;3.40;;;;;;;9.07;100.00;99590.00;5018886;28;20487;-82
2022/11/25 11:06:41;;;;;;;18.77;3.25;;;;;;;9.09;100.00;99579.47;5031105;28;20045;-82
2022/11/25 11:09:31;;;;;;;13.32;2.92;;;;;;;9.44;100.00;99618.66;5031082;28;20103;-81
2022/11/25 11:12:12;;;;;;;9.60;2.42;;;;;;;9.31;100.00;99619.28;5027271;28;20598;-81
2022/11/25 11:14:39;;;;;;;11.18;2.53;;;;;;;9.20;100.00;99603.28;5030843;28;20096;-81
2022/11/25 11:17:25;;;;;;;11.23;2.95;;;;;;;9.32;100.00;99620.94;5030043;28;20076;-81
2022/11/25 11:20:05;;;;;;;13.07;3.08;;;;;;;9.12;100.00;99574.09;5027499;28;20057;-80
2022/11/25 11:22:33;;;;;;;18.13;4.18;;;;;;;9.02;100.00;99610.25;5019344;28;20053;-81
2022/11/25 11:25:18;;;;;;;16.17;4.70;;;;;;;9.22;100.00;99614.50;5025335;28;20092;-81
2022/11/25 11:27:45;;;;;;;11.38;3.70;;;;;;;9.10;100.00;99602.91;5053924;28;20046;-81
2022/11/25 11:30:22;;;;;;;14.05;4.22;;;;;;;8.86;100.00;99622.38;5025834;28;20546;-81
2022/11/25 11:33:05;;;;;;;17.73;4.10;;;;;;;8.96;100.00;99626.25;5029888;28;20061;-80
2022/11/25 11:35:57;;;;;;;19.90;3.88;;;;;;;9.04;100.00;99641.53;5022769;28;20418;-81
2022/11/25 11:38:51;;;;;;;13.68;3.75;;;;;;;8.80;100.00;99592.19;5030420;28;20107;-81
2022/11/25 11:41:33;;;;;;;16.15;3.90;;;;;;;8.88;100.00;99612.69;5027117;28;20463;-81
2022/11/25 11:44:11;;;;;;;18.58;3.58;;;;;;;9.08;100.00;99615.19;5030163;28;20525;-81
2022/11/25 11:47:00;;;;;;;13.10;3.55;;;;;;;8.90;100.00;99614.31;5021499;28;20368;-81
2022/11/25 11:49:45;;;;;;;11.32;2.60;;;;;;;9.18;100.00;99623.41;5024601;28;20049;-81
2022/11/25 11:52:39;;;;;;;11.68;2.50;;;;;;;9.43;100.00;99648.31;5024912;28;20046;-81
2022/11/25 11:55:40;;;;;;;14.27;3.17;;;;;;;9.48;100.00;99668.06;5023061;28;20119;-81
2022/11/25 11:58:17;;;;;;;19.00;3.90;;;;;;;9.25;100.00;99660.53;5029245;28;20107;-81
2022/11/25 12:01:07;;;;;;;16.85;3.35;;;;;;;9.23;100.00;99663.19;5028513;28;20053;-82